Adana Şakirpaşa Airport

LTAF · 阿达纳省, 土耳其

罗盘
风向 的 风向 的 风向 到 风向 300° Adana Airport 5/23
风: 4 kt, 2 beaufort

2 kt

4 kt
改变
0 ft 1.000 2.000 3.000 4.000 5.000
CAVOK
METAR LTAF 231750Z 30004KT 270V350 CAVOK 16/12 Q1020 NOSIG RMK RWY23 31004KT 210V330 4CI180

METAR Adana Airport - LTAF/ADA

Adana Airport是,土耳其中的中型机场。 该机场位于纬度36,98220和经度35,28040。 该机场有一条跑道: 5/23. 本场的ICAO机场代码为LTAF。 该机场的IATA代码为ADA。 机场在Ankara FIR中。

该航空气象观测是针对Adana Airport在2024年2月23日 20:50, 当地时间进行的。

机场观察

风向为300°,速度为4 kt。 风向在270°和350°之间变化。

天气为CAVOK。这意味着在5.000 ft或MSA(最低安全高度)以下(以较高者为准)以下没有云。这也意味着没有观测到积雨云或高耸的积云,可见度为10 km 或者更多或更高。此外,不会有雾,降雨或其他重要天气。

温度和风寒是16 °C。 露点为12 °C,相对湿度为77%。 海平面上的气压为1020 hPa (QNH)。

白天

今天,太阳从07:18升起,在18:26降落。 这适用于Adana Airport,世界夏令时可能有所不同。 当地时间与世界标准时间之间的时差为+3 小时。 当前,没有夏令时有效。

公司介绍

在这个机场,你可以找到飞行学校。 本场上唯一已知的公司是Davut Havacılık。

体会

到Vliegles.nl去找飞行课程,跳伞和其他飞行体验。 浏览页面,了解Adana Airport附近所有可用的活动。 你也可以使用搜索功能来寻找你所在地附近的特定飞行课程、跳伞或其他飞行体验。

跑道

Id 标题 侧风 逆风 侧风 %
5/23 053°-233° 4 kt 2 kt 92 %

逆风成分最大的方向会被突出显示,并用于横风计算。 这并不一定意味着这个方向在使用。

温度 & 天气

温度 16 °C
露点 12 °C
相对湿度 77%
Kp-index 0 (0-9)

评论

RWY23 31004KT 210V330 4CI180

白天

日出
07:18 (9:59)
中午
12:52
日落
18:26

小工具

你想在你的网站上有一个关于Adana Airport的当前航空天气(METAR)的小部件吗?

显示HTML代码
?>